Time;durP1;ratioP1;P1;durP2;ratioP2;P2;SDS_P1;SDS_P2;PMS_P1;PMS_P2;Temp;Humidity;BMP_temperature;BMP_pressure;BME280_temperature;BME280_humidity;BME280_pressure;Samples;Min_cycle;Max_cycle;Signal;HPM_P1;HPM_P2
2022/09/14 00:01:46;;;;;;;3.47;1.73;;;26.10;55.40;;;;;;10482687;28;20048;-33
2022/09/14 00:06:49;;;;;;;4.10;1.83;;;26.00;55.40;;;;;;10483147;28;20547;-31
2022/09/14 00:11:51;;;;;;;5.00;1.70;;;26.00;55.40;;;;;;10480850;28;20131;-27
2022/09/14 00:16:53;;;;;;;4.13;1.70;;;26.00;55.40;;;;;;10479764;28;20094;-31
2022/09/14 00:21:58;;;;;;;4.60;1.73;;;26.00;55.40;;;;;;10480905;28;20052;-32
2022/09/14 00:27:01;;;;;;;4.75;1.48;;;26.00;55.50;;;;;;10478999;28;20101;-35
2022/09/14 00:32:03;;;;;;;3.65;1.60;;;25.90;55.40;;;;;;10479747;28;20049;-30
2022/09/14 00:37:06;;;;;;;2.83;1.48;;;25.90;55.50;;;;;;10478886;28;20465;-34
2022/09/14 00:42:15;;;;;;;3.47;1.58;;;25.90;55.50;;;;;;10480655;28;20132;-32
2022/09/14 00:47:17;;;;;;;2.40;1.30;;;25.90;55.60;;;;;;10478214;28;20417;-30
2022/09/14 00:52:25;;;;;;;1.90;1.17;;;25.90;55.60;;;;;;10476513;28;20067;-31
2022/09/14 00:57:30;;;;;;;4.35;1.50;;;25.80;55.50;;;;;;10475608;28;20767;-34
2022/09/14 01:02:33;;;;;;;4.15;1.38;;;25.80;55.60;;;;;;10475002;28;20059;-31
2022/09/14 01:07:51;;;;;;;3.80;1.23;;;25.80;55.60;;;;;;10474013;28;20052;-32
2022/09/14 01:13:05;;;;;;;4.78;1.50;;;25.80;55.50;;;;;;10476102;28;20055;-33
2022/09/14 01:18:15;;;;;;;3.42;1.42;;;25.80;55.60;;;;;;10475956;28;20157;-33
2022/09/14 01:23:27;;;;;;;2.50;1.40;;;25.80;55.60;;;;;;10472884;28;20048;-31
2022/09/14 01:28:35;;;;;;;4.53;1.45;;;25.70;55.70;;;;;;10475333;28;20048;-34
2022/09/14 01:33:43;;;;;;;2.95;1.38;;;25.80;55.70;;;;;;10479232;28;20135;-33
2022/09/14 01:38:49;;;;;;;3.53;1.25;;;25.70;55.60;;;;;;10478879;28;20132;-32
2022/09/14 01:43:57;;;;;;;2.72;1.20;;;25.90;56.30;;;;;;10479899;28;20053;-28
2022/09/14 01:49:03;;;;;;;2.42;1.25;;;25.70;55.50;;;;;;10479926;28;20052;-34
2022/09/14 01:54:10;;;;;;;3.65;1.35;;;25.70;55.60;;;;;;10479021;28;20140;-31
2022/09/14 01:59:17;;;;;;;2.20;0.93;;;25.70;55.60;;;;;;10478297;28;20642;-32
2022/09/14 02:04:27;;;;;;;5.28;1.10;;;25.60;55.50;;;;;;10479747;28;20110;-36
2022/09/14 02:09:29;;;;;;;2.70;1.05;;;25.60;55.50;;;;;;10477374;28;20566;-36
2022/09/14 02:14:32;;;;;;;1.83;0.90;;;25.60;55.50;;;;;;10478402;28;20090;-31
2022/09/14 02:19:42;;;;;;;2.63;1.00;;;25.60;55.50;;;;;;10479828;28;20131;-33
2022/09/14 02:24:44;;;;;;;1.90;1.00;;;25.50;55.50;;;;;;10479583;28;20118;-33
2022/09/14 02:29:48;;;;;;;2.45;1.00;;;25.50;55.50;;;;;;10484684;28;20147;-32
2022/09/14 02:35:04;;;;;;;1.98;1.08;;;25.50;55.60;;;;;;10486161;28;20102;-31
2022/09/14 02:40:13;;;;;;;2.25;0.93;;;25.50;55.50;;;;;;10484950;28;20098;-31
2022/09/14 02:45:24;;;;;;;2.60;1.00;;;25.40;55.50;;;;;;10483951;28;20148;-33
2022/09/14 02:50:33;;;;;;;1.87;0.60;;;25.40;55.50;;;;;;10485900;28;20049;-32
2022/09/14 02:55:40;;;;;;;3.20;0.80;;;25.50;55.50;;;;;;10485668;28;20533;-38
2022/09/14 03:00:45;;;;;;;1.88;0.73;;;25.50;55.60;;;;;;10484100;28;20110;-33
2022/09/14 03:05:47;;;;;;;1.85;1.02;;;25.40;55.50;;;;;;10484883;28;20044;-27
2022/09/14 03:10:49;;;;;;;1.88;0.70;;;25.40;55.60;;;;;;10485914;28;20442;-34
2022/09/14 03:15:53;;;;;;;2.13;0.88;;;25.40;55.60;;;;;;10484030;28;20068;-30
2022/09/14 03:21:01;;;;;;;1.20;0.60;;;25.40;55.60;;;;;;10485503;28;20102;-35
2022/09/14 03:26:07;;;;;;;2.60;0.90;;;25.30;55.60;;;;;;10487320;28;20529;-31
2022/09/14 03:31:12;;;;;;;2.90;0.85;;;25.40;55.70;;;;;;10481563;28;20056;-35
2022/09/14 03:36:16;;;;;;;1.73;0.70;;;25.30;55.50;;;;;;10484028;28;20156;-34
2022/09/14 03:41:18;;;;;;;2.85;0.60;;;25.30;55.70;;;;;;10482008;28;20080;-32
2022/09/14 03:46:23;;;;;;;1.77;0.68;;;25.30;55.50;;;;;;10483095;28;20056;-36
2022/09/14 03:51:25;;;;;;;1.85;0.50;;;25.30;55.60;;;;;;10481452;28;20110;-34
2022/09/14 03:56:27;;;;;;;1.25;0.70;;;25.30;55.50;;;;;;10483653;28;20817;-32
2022/09/14 04:01:31;;;;;;;1.10;0.50;;;25.30;55.60;;;;;;10482869;28;20048;-32
2022/09/14 04:06:33;;;;;;;1.50;0.50;;;25.30;55.50;;;;;;10481708;28;20057;-32
2022/09/14 04:11:35;;;;;;;;;;;25.30;55.60;;;;;;10481647;28;20555;-34
2022/09/14 04:16:38;;;;;;;1.13;0.50;;;25.30;55.60;;;;;;10480581;28;19926;-34
2022/09/14 04:21:40;;;;;;;1.27;0.70;;;25.20;55.50;;;;;;10482040;28;20047;-32
2022/09/14 04:26:43;;;;;;;1.52;0.50;;;25.40;55.60;;;;;;10480082;28;20134;-32
2022/09/14 04:31:46;;;;;;;1.02;0.57;;;25.20;56.10;;;;;;10481042;28;20075;-30
2022/09/14 04:36:48;;;;;;;4.90;1.30;;;25.20;55.60;;;;;;10479781;28;20439;-34
2022/09/14 04:41:50;;;;;;;2.28;0.77;;;25.50;55.90;;;;;;10478964;28;20143;-33
2022/09/14 04:46:53;;;;;;;1.30;0.70;;;25.20;55.50;;;;;;10481001;28;20049;-35
2022/09/14 04:51:55;;;;;;;2.58;0.60;;;25.20;55.50;;;;;;10480090;28;20068;-32
2022/09/14 04:56:56;;;;;;;;;;;25.20;55.60;;;;;;10479513;28;20564;-33
2022/09/14 05:02:00;;;;;;;2.13;0.82;;;25.10;55.50;;;;;;10478624;28;20019;-32
2022/09/14 05:07:01;;;;;;;3.22;1.33;;;25.10;55.60;;;;;;10480378;28;20135;-33
2022/09/14 05:12:03;;;;;;;1.10;0.60;;;25.10;55.70;;;;;;10476313;28;20832;-30
2022/09/14 05:17:07;;;;;;;3.50;0.70;;;25.10;55.60;;;;;;10478199;28;20044;-31
2022/09/14 05:22:08;;;;;;;3.28;0.77;;;25.10;55.70;;;;;;10479080;28;20036;-31
2022/09/14 05:27:11;;;;;;;1.55;0.70;;;25.10;55.70;;;;;;10479389;28;20071;-31
2022/09/14 05:32:14;;;;;;;4.03;1.70;;;25.00;55.70;;;;;;10480421;28;20046;-35
2022/09/14 05:37:16;;;;;;;4.55;1.00;;;25.00;55.70;;;;;;10478119;28;20466;-30
2022/09/14 05:42:18;;;;;;;;;;;25.00;55.70;;;;;;10476835;28;20051;-33
2022/09/14 05:47:21;;;;;;;2.90;1.05;;;25.00;55.80;;;;;;10480269;28;20013;-27
2022/09/14 05:52:23;;;;;;;1.83;0.60;;;25.00;55.70;;;;;;10480350;28;20141;-34
2022/09/14 05:57:25;;;;;;;2.28;0.60;;;25.10;55.90;;;;;;10471069;28;20091;-33
2022/09/14 06:02:28;;;;;;;;;;;25.00;56.00;;;;;;10474485;28;20051;-37
2022/09/14 06:07:29;;;;;;;3.47;0.65;;;25.00;56.00;;;;;;10481859;28;20376;-28
2022/09/14 06:12:31;;;;;;;;;;;25.00;56.00;;;;;;10486629;28;20056;-29
2022/09/14 06:17:35;;;;;;;5.93;0.80;;;25.00;55.90;;;;;;10485245;28;20525;-32
2022/09/14 06:22:37;;;;;;;3.15;0.50;;;25.00;55.90;;;;;;10483439;28;20045;-32
2022/09/14 06:27:39;;;;;;;;;;;25.00;55.90;;;;;;10485153;28;20136;-33
2022/09/14 06:32:42;;;;;;;1.90;0.75;;;25.00;55.90;;;;;;10484865;28;19924;-30
2022/09/14 06:37:44;;;;;;;1.73;0.47;;;25.20;56.10;;;;;;10482575;28;20056;-33
2022/09/14 06:42:45;;;;;;;;;;;25.00;56.00;;;;;;10484086;28;20469;-32
2022/09/14 06:47:48;;;;;;;2.80;0.73;;;25.00;55.80;;;;;;10483501;28;19924;-30
2022/09/14 06:52:50;;;;;;;3.40;0.80;;;25.00;55.90;;;;;;10481336;28;20067;-32
2022/09/14 06:57:52;;;;;;;;;;;25.00;55.90;;;;;;10484998;28;20072;-38
2022/09/14 07:02:55;;;;;;;2.05;0.68;;;24.90;55.80;;;;;;10483143;28;20397;-33
2022/09/14 07:07:57;;;;;;;4.43;0.70;;;24.90;55.80;;;;;;10482821;28;20068;-33
2022/09/14 07:12:59;;;;;;;;;;;25.00;55.70;;;;;;10483553;28;20568;-35
2022/09/14 07:18:03;;;;;;;2.03;0.47;;;25.00;55.70;;;;;;10483906;28;19925;-35
2022/09/14 07:23:04;;;;;;;2.92;0.65;;;24.90;55.70;;;;;;10482388;28;20049;-38
2022/09/14 07:28:06;;;;;;;;;;;24.90;55.60;;;;;;10483478;28;20699;-31
2022/09/14 07:33:09;;;;;;;2.90;0.57;;;24.90;55.60;;;;;;10482459;28;19924;-33
2022/09/14 07:38:11;;;;;;;2.55;0.75;;;25.20;55.70;;;;;;10483260;28;20045;-28
2022/09/14 07:43:13;;;;;;;;;;;24.90;55.50;;;;;;10482900;28;20493;-31
2022/09/14 07:48:17;;;;;;;5.68;1.00;;;24.90;55.60;;;;;;10481582;28;20341;-32
2022/09/14 07:53:18;;;;;;;3.53;0.80;;;24.90;55.40;;;;;;10480188;28;20070;-33
2022/09/14 07:58:21;;;;;;;;;;;24.90;55.50;;;;;;10481712;28;20135;-37
2022/09/14 08:03:25;;;;;;;4.82;0.70;;;24.90;55.30;;;;;;10482466;28;20498;-33
2022/09/14 08:08:29;;;;;;;1.50;0.70;;;24.90;55.30;;;;;;10482371;28;20143;-32
2022/09/14 08:13:31;;;;;;;3.65;0.70;;;24.90;55.30;;;;;;10482096;28;20041;-33
2022/09/14 08:18:35;;;;;;;2.45;0.68;;;24.90;55.10;;;;;;10479411;28;20124;-32
2022/09/14 08:23:38;;;;;;;3.70;0.93;;;24.90;55.10;;;;;;10479849;28;20123;-31
2022/09/14 08:28:41;;;;;;;4.18;0.88;;;24.90;55.00;;;;;;10479696;28;20050;-34
2022/09/14 08:33:45;;;;;;;4.00;0.80;;;24.90;55.50;;;;;;10480057;28;20131;-32
2022/09/14 08:38:47;;;;;;;2.78;0.73;;;24.90;55.00;;;;;;10478427;28;20059;-27
2022/09/14 08:43:49;;;;;;;2.10;0.90;;;24.90;54.80;;;;;;10479607;28;20128;-33
2022/09/14 08:48:53;;;;;;;5.20;1.13;;;24.90;54.80;;;;;;10479444;28;20052;-35
2022/09/14 08:53:58;;;;;;;1.77;0.60;;;24.90;54.70;;;;;;10478288;28;20754;-35
2022/09/14 08:59:29;;;;;;;1.92;0.60;;;24.90;54.60;;;;;;10480545;28;20055;-32
2022/09/14 09:04:47;;;;;;;4.22;0.60;;;25.00;54.60;;;;;;10477642;28;20066;-30
2022/09/14 09:09:52;;;;;;;2.72;0.90;;;24.90;54.60;;;;;;10473734;28;20048;-38
2022/09/14 09:14:57;;;;;;;4.13;1.05;;;24.90;54.50;;;;;;10478223;28;20044;-33
2022/09/14 09:20:09;;;;;;;3.05;0.98;;;24.90;54.50;;;;;;10478282;28;20054;-37
2022/09/14 09:25:15;;;;;;;;;;;24.90;54.40;;;;;;10478438;28;20575;-33
2022/09/14 09:30:17;;;;;;;2.97;0.77;;;24.90;54.40;;;;;;10477274;28;20377;-29
2022/09/14 09:35:24;;;;;;;1.23;0.60;;;24.90;54.30;;;;;;10478306;28;20137;-34
2022/09/14 09:40:32;;;;;;;1.98;0.63;;;24.90;54.20;;;;;;10477478;28;20052;-32
2022/09/14 09:45:55;;;;;;;3.00;0.80;;;24.90;54.20;;;;;;10475615;28;20088;-33
2022/09/14 09:51:10;;;;;;;2.63;0.60;;;24.90;54.10;;;;;;10475397;28;20052;-36
2022/09/14 09:56:17;;;;;;;4.40;0.57;;;24.90;54.10;;;;;;10473931;28;20460;-38
2022/09/14 10:01:26;;;;;;;3.33;0.80;;;24.90;54.10;;;;;;10476481;28;20075;-39
2022/09/14 10:06:30;;;;;;;1.02;0.32;;;24.90;54.00;;;;;;10478265;28;20052;-38
2022/09/14 10:11:36;;;;;;;2.70;0.55;;;24.90;54.00;;;;;;10477537;28;20047;-37
2022/09/14 10:16:40;;;;;;;3.55;0.63;;;24.90;54.00;;;;;;10476576;28;20056;-34
2022/09/14 10:22:05;;;;;;;5.15;0.70;;;24.90;54.00;;;;;;10477980;28;20571;-34
2022/09/14 10:27:32;;;;;;;2.42;0.70;;;24.90;54.00;;;;;;10476122;28;20055;-27
2022/09/14 10:32:36;;;;;;;3.00;0.65;;;24.90;53.90;;;;;;10476892;28;20055;-33
2022/09/14 10:37:49;;;;;;;4.10;0.98;;;24.90;53.90;;;;;;10475425;28;20051;-33
2022/09/14 10:43:02;;;;;;;2.28;0.70;;;24.90;53.80;;;;;;10476824;28;20135;-36
2022/09/14 10:48:16;;;;;;;5.47;1.00;;;25.00;53.80;;;;;;10478288;28;20084;-34
2022/09/14 10:53:40;;;;;;;5.28;0.85;;;25.00;53.70;;;;;;10482844;28;20433;-38
2022/09/14 10:59:00;;;;;;;2.45;0.82;;;25.00;53.60;;;;;;10482716;28;20044;-32
2022/09/14 11:04:21;;;;;;;1.40;0.75;;;25.00;53.60;;;;;;10483603;28;20124;-31
2022/09/14 11:09:29;;;;;;;1.58;0.47;;;25.00;53.60;;;;;;10483285;28;20609;-31
2022/09/14 11:14:48;;;;;;;1.33;0.45;;;25.00;53.40;;;;;;10482617;28;20131;-31
2022/09/14 11:19:58;;;;;;;2.55;0.63;;;25.10;54.00;;;;;;10483592;28;20044;-33
2022/09/14 11:25:09;;;;;;;2.50;0.50;;;25.10;53.40;;;;;;10482990;28;20473;-36
2022/09/14 11:30:15;;;;;;;2.40;0.70;;;25.10;53.40;;;;;;10482301;28;20447;-33
2022/09/14 11:35:21;;;;;;;1.90;0.57;;;25.10;53.30;;;;;;10482740;28;20044;-32
2022/09/14 11:40:29;;;;;;;1.67;0.45;;;25.10;53.30;;;;;;10480745;28;20102;-33
2022/09/14 11:45:36;;;;;;;1.40;0.50;;;25.30;53.40;;;;;;10483194;28;20102;-36
2022/09/14 11:50:42;;;;;;;4.53;1.10;;;25.20;53.40;;;;;;10480569;28;20110;-34
2022/09/14 11:55:47;;;;;;;5.68;4.30;;;25.20;53.70;;;;;;10482239;28;20055;-32
2022/09/14 12:01:18;;;;;;;11.85;9.40;;;25.20;53.90;;;;;;10479763;28;20040;-33
2022/09/14 12:06:52;;;;;;;17.10;14.73;;;25.20;53.90;;;;;;10480956;28;20071;-33
2022/09/14 12:12:07;;;;;;;20.75;16.17;;;25.30;53.80;;;;;;10482383;28;20126;-32
2022/09/14 12:17:22;;;;;;;19.20;16.73;;;25.40;53.80;;;;;;10481182;28;20127;-32
2022/09/14 12:22:31;;;;;;;22.70;17.45;;;25.40;53.80;;;;;;10478241;28;20858;-33
2022/09/14 12:27:37;;;;;;;23.70;17.70;;;25.50;53.70;;;;;;10480761;28;20044;-34
2022/09/14 12:32:42;;;;;;;20.45;17.55;;;25.50;53.60;;;;;;10475019;28;20048;-36
2022/09/14 12:37:44;;;;;;;18.77;16.45;;;25.60;53.50;;;;;;10478172;28;20056;-32
2022/09/14 12:42:47;;;;;;;17.60;13.02;;;25.50;53.20;;;;;;10477047;28;20075;-32
2022/09/14 12:47:52;;;;;;;18.20;13.30;;;26.00;52.30;;;;;;10484720;28;20048;-33
2022/09/14 12:53:13;;;;;;;14.02;11.15;;;25.80;52.90;;;;;;10474825;28;20049;-34
2022/09/14 12:58:29;;;;;;;12.38;10.68;;;25.80;52.90;;;;;;10475408;28;20041;-33
2022/09/14 13:03:49;;;;;;;9.50;8.48;;;25.80;52.90;;;;;;10475263;28;20116;-32
2022/09/14 13:08:56;;;;;;;11.10;8.00;;;25.80;52.80;;;;;;10474831;28;20087;-33
2022/09/14 13:14:01;;;;;;;10.43;8.38;;;25.90;52.70;;;;;;10473001;28;20062;-33
2022/09/14 13:19:06;;;;;;;7.25;6.55;;;25.90;52.50;;;;;;10476830;28;20131;-38
2022/09/14 13:24:20;;;;;;;7.35;6.53;;;25.90;52.70;;;;;;10475894;28;20488;-32
2022/09/14 13:29:25;;;;;;;8.18;6.07;;;26.00;52.60;;;;;;10472650;28;20072;-34
2022/09/14 13:34:29;;;;;;;7.00;5.55;;;26.00;52.50;;;;;;10471445;28;20041;-33
2022/09/14 13:39:34;;;;;;;8.38;5.60;;;26.10;52.60;;;;;;10469133;28;20048;-31
2022/09/14 13:44:44;;;;;;;7.50;5.40;;;26.10;52.40;;;;;;10469274;28;20056;-31
2022/09/14 13:49:47;;;;;;;6.93;5.50;;;26.20;52.20;;;;;;10468473;28;20057;-33
2022/09/14 13:54:50;;;;;;;6.25;4.53;;;26.50;52.30;;;;;;10467483;28;20054;-33
2022/09/14 14:00:21;;;;;;;7.38;4.80;;;26.30;52.00;;;;;;10466961;28;20122;-32
2022/09/14 14:05:27;;;;;;;5.63;4.47;;;26.30;52.00;;;;;;10433786;28;20075;-38
2022/09/14 14:10:32;;;;;;;5.30;3.90;;;26.30;52.00;;;;;;10468120;28;20969;-38
2022/09/14 14:15:41;;;;;;;4.25;3.85;;;26.30;51.80;;;;;;10466059;28;20161;-38
2022/09/14 14:20:43;;;;;;;5.32;4.40;;;26.40;51.90;;;;;;10465890;28;20131;-34
2022/09/14 14:25:47;;;;;;;5.25;3.90;;;26.40;52.00;;;;;;10474716;28;20076;-33
2022/09/14 14:30:51;;;;;;;4.72;2.53;;;26.10;51.90;;;;;;10479815;28;20123;-31
2022/09/14 14:35:55;;;;;;;6.38;3.53;;;26.20;51.80;;;;;;10479079;28;20045;-28
2022/09/14 14:40:57;;;;;;;6.20;2.83;;;26.00;52.80;;;;;;10476718;28;20094;-38
2022/09/14 14:46:01;;;;;;;3.47;1.67;;;26.20;52.10;;;;;;10477037;28;20147;-32
2022/09/14 14:51:04;;;;;;;3.72;2.42;;;25.20;53.80;;;;;;10477807;28;20454;-33
2022/09/14 14:56:06;;;;;;;2.60;2.03;;;26.00;52.80;;;;;;10476711;28;20405;-35
2022/09/14 15:01:09;;;;;;;3.83;2.15;;;26.30;51.10;;;;;;10471032;28;20072;-34
2022/09/14 15:06:13;;;;;;;5.93;4.72;;;26.30;52.30;;;;;;10476973;28;20040;-36
2022/09/14 15:11:16;;;;;;;13.50;7.40;;;26.40;52.10;;;;;;10474199;28;20500;-36
2022/09/14 15:16:19;;;;;;;12.68;8.18;;;26.40;52.20;;;;;;10474906;28;20041;-33
2022/09/14 15:21:22;;;;;;;13.98;8.85;;;26.40;52.20;;;;;;10475803;28;20424;-33
2022/09/14 15:26:24;;;;;;;14.98;7.75;;;26.50;52.30;;;;;;10476475;28;20048;-32
2022/09/14 15:31:27;;;;;;;9.70;5.07;;;26.20;52.50;;;;;;10475541;28;20037;-32
2022/09/14 15:36:41;;;;;;;11.57;4.93;;;26.50;52.10;;;;;;10472254;28;20117;-34
2022/09/14 15:41:43;;;;;;;10.88;4.80;;;26.60;51.80;;;;;;10472966;28;20095;-34
2022/09/14 15:46:46;;;;;;;5.75;4.00;;;26.50;52.00;;;;;;10473356;28;20060;-29
2022/09/14 15:51:50;;;;;;;6.30;3.13;;;26.60;51.80;;;;;;10471133;28;20075;-33
2022/09/14 15:56:54;;;;;;;9.15;2.53;;;26.60;51.70;;;;;;10471760;28;20292;-35
2022/09/14 16:01:57;;;;;;;4.72;2.50;;;26.70;52.20;;;;;;10472136;28;20056;-30
2022/09/14 16:06:59;;;;;;;4.00;2.40;;;26.60;51.80;;;;;;10473045;28;20477;-33
2022/09/14 16:12:01;;;;;;;4.75;2.00;;;26.70;51.50;;;;;;10471718;28;20057;-33
2022/09/14 16:17:05;;;;;;;3.95;1.70;;;26.80;51.70;;;;;;10473780;28;20122;-33
2022/09/14 16:22:07;;;;;;;4.03;1.20;;;26.80;51.60;;;;;;10470727;28;20048;-33
2022/09/14 16:27:09;;;;;;;4.93;1.52;;;26.80;51.70;;;;;;10472568;28;20116;-31
2022/09/14 16:32:12;;;;;;;6.43;2.00;;;26.80;51.80;;;;;;10472329;28;20057;-32
2022/09/14 16:37:15;;;;;;;6.90;1.33;;;26.90;52.00;;;;;;10470528;28;20470;-34
2022/09/14 16:42:17;;;;;;;4.75;1.10;;;26.80;52.00;;;;;;10470109;28;20147;-32
2022/09/14 16:47:20;;;;;;;5.85;1.40;;;26.90;52.00;;;;;;10465436;28;20047;-38
2022/09/14 16:52:22;;;;;;;1.95;1.00;;;27.00;52.10;;;;;;10468786;28;20182;-35
2022/09/14 16:57:25;;;;;;;3.25;0.85;;;27.30;52.20;;;;;;10467542;28;20186;-38
2022/09/14 17:02:28;;;;;;;2.10;0.70;;;26.90;51.90;;;;;;10468027;28;20106;-32
2022/09/14 17:07:30;;;;;;;3.33;1.30;;;26.90;52.00;;;;;;10471426;28;20078;-33
2022/09/14 17:12:32;;;;;;;2.05;0.80;;;26.90;52.00;;;;;;10472945;28;20067;-32
2022/09/14 17:17:35;;;;;;;2.42;0.70;;;26.90;52.10;;;;;;10472353;28;20056;-38
2022/09/14 17:22:37;;;;;;;5.47;0.73;;;26.90;52.00;;;;;;10471790;28;20060;-29
2022/09/14 17:27:39;;;;;;;17.35;6.05;;;26.90;52.00;;;;;;10472835;28;20063;-31
2022/09/14 17:32:42;;;;;;;24.88;8.45;;;26.90;52.20;;;;;;10475271;28;20147;-34
2022/09/14 17:37:44;;;;;;;16.92;5.47;;;26.80;52.20;;;;;;10472862;28;20424;-34
2022/09/14 17:42:46;;;;;;;14.38;4.53;;;26.80;52.20;;;;;;10472445;28;20139;-32
2022/09/14 17:47:50;;;;;;;11.40;3.17;;;26.80;52.30;;;;;;10471432;28;20125;-31
2022/09/14 17:52:51;;;;;;;8.00;2.50;;;26.80;52.30;;;;;;10472515;28;20405;-34
2022/09/14 17:57:54;;;;;;;5.82;1.95;;;26.80;52.50;;;;;;10474891;28;20568;-33
2022/09/14 18:02:57;;;;;;;5.60;1.23;;;26.80;52.40;;;;;;10470456;28;20255;-33
2022/09/14 18:07:59;;;;;;;4.30;1.33;;;26.60;52.30;;;;;;10474500;28;20141;-33
2022/09/14 18:13:01;;;;;;;4.93;1.13;;;26.80;52.50;;;;;;10473933;28;20064;-32
2022/09/14 18:18:05;;;;;;;4.22;0.90;;;26.80;52.50;;;;;;10471126;28;20106;-34
2022/09/14 18:23:07;;;;;;;4.07;0.82;;;26.70;52.60;;;;;;10470052;28;20090;-34
2022/09/14 18:28:09;;;;;;;2.40;0.57;;;26.70;52.70;;;;;;10468620;28;20056;-30
2022/09/14 18:33:13;;;;;;;1.30;0.47;;;26.70;52.90;;;;;;10471289;28;20123;-33
2022/09/14 18:38:15;;;;;;;1.60;0.60;;;26.60;52.80;;;;;;10471209;28;20052;-30
2022/09/14 18:43:17;;;;;;;2.22;0.50;;;26.70;52.80;;;;;;10463895;28;20472;-39
2022/09/14 18:48:20;;;;;;;1.88;0.50;;;26.70;53.00;;;;;;10471784;28;20533;-28
2022/09/14 18:53:22;;;;;;;2.67;0.43;;;26.60;53.00;;;;;;10470690;28;20702;-30
2022/09/14 18:58:24;;;;;;;5.60;0.50;;;26.60;53.10;;;;;;10471154;28;20707;-39
2022/09/14 19:03:27;;;;;;;6.07;0.85;;;26.60;53.10;;;;;;10469927;28;20694;-34
2022/09/14 19:08:29;;;;;;;5.22;0.68;;;26.50;53.10;;;;;;10470509;28;20132;-34
2022/09/14 19:13:30;;;;;;;12.82;1.00;;;26.50;53.20;;;;;;10479061;28;20095;-30
2022/09/14 19:18:34;;;;;;;5.85;0.80;;;26.50;53.10;;;;;;10478741;28;20094;-32
2022/09/14 19:23:37;;;;;;;4.72;0.98;;;26.60;53.10;;;;;;10481213;28;20473;-35
2022/09/14 19:28:39;;;;;;;9.43;1.92;;;26.40;52.90;;;;;;10480106;28;20056;-38
2022/09/14 19:33:43;;;;;;;12.48;1.30;;;26.40;53.00;;;;;;10478420;28;20113;-36
2022/09/14 19:38:45;;;;;;;7.60;1.42;;;26.40;52.90;;;;;;10477305;28;20053;-32
2022/09/14 19:43:47;;;;;;;10.88;1.50;;;26.30;52.90;;;;;;10478342;28;20064;-32
2022/09/14 19:48:51;;;;;;;11.32;2.83;;;26.30;53.00;;;;;;10477033;28;20131;-33
2022/09/14 19:53:55;;;;;;;11.15;3.17;;;26.20;52.90;;;;;;10477747;28;20056;-34
2022/09/14 19:58:59;;;;;;;14.52;2.92;;;26.30;53.00;;;;;;10476481;28;20040;-33
2022/09/14 20:04:04;;;;;;;11.30;1.83;;;26.20;53.00;;;;;;10478914;28;20163;-33
2022/09/14 20:09:08;;;;;;;13.40;2.83;;;26.20;53.00;;;;;;10478531;28;20052;-36
2022/09/14 20:14:12;;;;;;;16.98;2.08;;;26.20;53.10;;;;;;10475644;28;20084;-32
2022/09/14 20:19:16;;;;;;;15.15;2.00;;;26.10;53.10;;;;;;10476154;28;20052;-32
2022/09/14 20:24:24;;;;;;;10.43;1.85;;;26.10;53.10;;;;;;10476537;28;20471;-31
2022/09/14 20:29:29;;;;;;;10.18;2.30;;;26.10;53.20;;;;;;10479793;28;20049;-30
2022/09/14 20:34:33;;;;;;;10.80;2.03;;;26.00;53.20;;;;;;10481263;28;20143;-30
2022/09/14 20:39:37;;;;;;;15.32;2.40;;;26.00;53.20;;;;;;10483087;28;20044;-31
2022/09/14 20:44:38;;;;;;;13.65;1.92;;;26.00;53.30;;;;;;10480182;28;20048;-34
2022/09/14 20:49:42;;;;;;;7.22;0.98;;;25.90;53.30;;;;;;10482006;28;20064;-33
2022/09/14 20:54:44;;;;;;;7.85;1.50;;;25.80;53.40;;;;;;10481259;28;20491;-33
2022/09/14 20:59:46;;;;;;;4.13;0.77;;;25.90;53.50;;;;;;10479753;28;20056;-34
2022/09/14 21:04:49;;;;;;;5.28;1.08;;;25.90;53.50;;;;;;10479349;28;20044;-31
2022/09/14 21:09:51;;;;;;;9.95;1.88;;;25.80;53.50;;;;;;10478148;28;20641;-38
2022/09/14 21:14:53;;;;;;;4.53;1.02;;;25.80;53.50;;;;;;10480149;28;20102;-34
2022/09/14 21:19:56;;;;;;;3.55;0.82;;;25.60;54.00;;;;;;10476853;28;20056;-32
2022/09/14 21:24:57;;;;;;;3.58;0.63;;;25.70;53.60;;;;;;10473793;28;20044;-36
2022/09/14 21:29:59;;;;;;;1.63;0.40;;;25.60;54.00;;;;;;10474050;28;20156;-32
2022/09/14 21:35:03;;;;;;;5.50;0.80;;;25.50;53.60;;;;;;10469544;28;20047;-33
2022/09/14 21:40:06;;;;;;;2.60;0.50;;;25.70;53.70;;;;;;10474532;28;20501;-34
2022/09/14 21:45:08;;;;;;;2.70;0.55;;;25.00;55.30;;;;;;10456193;28;20070;-27
2022/09/14 21:50:12;;;;;;;4.32;0.70;;;25.30;54.40;;;;;;10473652;28;20071;-29
2022/09/14 21:55:14;;;;;;;1.85;0.73;;;25.10;55.00;;;;;;10473997;28;20429;-35
2022/09/14 22:00:16;;;;;;;4.63;0.70;;;24.70;55.40;;;;;;10474484;28;20493;-36
2022/09/14 22:05:19;;;;;;;1.40;0.25;;;24.40;55.80;;;;;;10476413;28;20478;-33
2022/09/14 22:10:21;;;;;;;2.17;0.60;;;25.00;55.30;;;;;;10476116;28;20048;-32
2022/09/14 22:15:30;;;;;;;;;;;23.80;55.70;;;;;;10477380;28;20113;-33
2022/09/14 22:20:34;;;;;;;1.23;0.40;;;24.30;56.90;;;;;;10478664;28;19928;-34
2022/09/14 22:25:39;;;;;;;1.48;0.30;;;23.90;56.40;;;;;;10474794;28;20145;-33
2022/09/14 22:30:44;;;;;;;3.92;0.82;;;24.90;55.20;;;;;;10474418;28;20053;-31
2022/09/14 22:35:53;;;;;;;1.55;0.40;;;23.90;55.70;;;;;;10475891;28;20153;-34
2022/09/14 22:40:55;;;;;;;1.55;0.40;;;23.90;56.60;;;;;;10476660;28;20129;-39
2022/09/14 22:45:58;;;;;;;2.05;0.30;;;24.80;54.80;;;;;;10479813;28;20071;-33
2022/09/14 22:51:01;;;;;;;0.70;0.40;;;24.50;54.90;;;;;;10482775;28;20041;-34
2022/09/14 22:56:08;;;;;;;5.45;0.98;;;24.70;54.80;;;;;;10480078;28;20045;-35
2022/09/14 23:01:12;;;;;;;1.00;0.30;;;24.60;54.90;;;;;;10482255;28;20051;-34
2022/09/14 23:06:15;;;;;;;1.77;0.65;;;24.90;54.30;;;;;;10480794;28;20124;-33
2022/09/14 23:11:17;;;;;;;2.03;0.45;;;24.50;53.80;;;;;;10482267;28;20523;-37
2022/09/14 23:16:21;;;;;;;3.83;0.63;;;24.40;56.90;;;;;;10483640;28;20162;-36
2022/09/14 23:21:24;;;;;;;2.05;0.73;;;24.20;55.60;;;;;;10482826;28;20041;-32
2022/09/14 23:26:27;;;;;;;7.35;0.88;;;24.10;54.50;;;;;;10482530;28;20087;-30
2022/09/14 23:31:31;;;;;;;1.95;0.68;;;24.40;53.90;;;;;;10483718;28;20075;-35
2022/09/14 23:36:34;;;;;;;1.67;0.55;;;24.10;55.70;;;;;;10480092;28;20852;-34
2022/09/14 23:41:36;;;;;;;1.90;0.43;;;24.40;54.80;;;;;;10479717;28;20045;-31
2022/09/14 23:46:38;;;;;;;2.00;0.60;;;24.50;54.40;;;;;;10478413;28;20049;-31
2022/09/14 23:51:42;;;;;;;1.60;0.68;;;24.50;54.60;;;;;;10477611;28;20499;-30
2022/09/14 23:56:44;;;;;;;0.98;0.45;;;24.50;54.80;;;;;;10478535;28;20168;-34
